createdAt,value
2023-02-22T00:01:19.314Z,3.00
2023-02-22T00:06:25.055Z,2.80
2023-02-22T00:11:27.619Z,3.35
2023-02-22T00:16:30.981Z,3.47
2023-02-22T00:21:34.819Z,2.93
2023-02-22T00:26:37.309Z,3.17
2023-02-22T00:31:40.100Z,2.88
2023-02-22T00:36:47.592Z,2.87
2023-02-22T00:41:50.427Z,3.25
2023-02-22T00:46:53.005Z,3.55
2023-02-22T00:51:56.825Z,3.80
2023-02-22T00:56:59.413Z,3.53
2023-02-22T01:02:01.926Z,3.88
2023-02-22T01:07:05.930Z,3.30
2023-02-22T01:12:08.974Z,3.60
2023-02-22T01:17:11.447Z,3.53
2023-02-22T01:22:15.241Z,3.45
2023-02-22T01:27:19.019Z,4.10
2023-02-22T01:32:21.550Z,3.30
2023-02-22T01:37:25.340Z,3.90
2023-02-22T01:42:29.392Z,3.30
2023-02-22T01:47:31.839Z,3.28
2023-02-22T01:52:35.672Z,3.35
2023-02-22T01:57:39.003Z,2.90
2023-02-22T02:02:45.238Z,3.10
2023-02-22T02:07:49.380Z,3.40
2023-02-22T02:12:54.134Z,3.90
2023-02-22T02:18:00.657Z,3.60
2023-02-22T02:23:25.553Z,3.63
2023-02-22T02:28:45.451Z,2.90
2023-02-22T02:33:57.957Z,3.37
2023-02-22T02:39:06.555Z,3.67
2023-02-22T02:44:14.502Z,3.15
2023-02-22T02:49:23.194Z,3.27
2023-02-22T02:54:26.409Z,2.73
2023-02-22T02:59:30.919Z,3.40
2023-02-22T03:04:49.836Z,3.67
2023-02-22T03:10:03.761Z,3.20
2023-02-22T03:15:18.693Z,3.40
2023-02-22T03:20:31.750Z,2.90
2023-02-22T03:25:39.535Z,3.60
2023-02-22T03:30:46.433Z,3.58
2023-02-22T03:35:56.666Z,3.45
2023-02-22T03:41:02.581Z,3.77
2023-02-22T03:46:07.521Z,3.40
2023-02-22T03:51:16.698Z,3.65
2023-02-22T03:56:25.120Z,3.00
2023-02-22T04:01:28.117Z,3.00
2023-02-22T04:06:32.144Z,3.55
2023-02-22T04:11:34.624Z,3.08
2023-02-22T04:16:37.114Z,2.60
2023-02-22T04:21:40.942Z,3.20
2023-02-22T04:26:43.411Z,3.00
2023-02-22T04:31:45.940Z,3.07
2023-02-22T04:36:49.806Z,3.40
2023-02-22T04:41:52.303Z,3.45
2023-02-22T04:46:54.865Z,2.92
2023-02-22T04:51:58.724Z,2.63
2023-02-22T04:57:01.198Z,3.13
2023-02-22T05:02:03.953Z,2.90
2023-02-22T05:07:07.749Z,3.30
2023-02-22T05:12:10.601Z,3.88
2023-02-22T05:17:13.517Z,3.35
2023-02-22T05:22:17.642Z,3.83
2023-02-22T05:27:20.404Z,3.50
2023-02-22T05:32:22.901Z,3.20
2023-02-22T05:37:26.791Z,3.40
2023-02-22T05:42:29.275Z,3.10
2023-02-22T05:47:31.789Z,3.53
2023-02-22T05:52:35.669Z,4.25
2023-02-22T05:57:38.164Z,3.90
2023-02-22T06:02:40.635Z,3.05
2023-02-22T06:07:44.430Z,3.42
2023-02-22T06:12:47.201Z,3.20
2023-02-22T06:17:50.436Z,3.30
2023-02-22T06:22:57.624Z,3.22
2023-02-22T06:28:01.806Z,3.72
2023-02-22T06:33:04.511Z,2.77
2023-02-22T06:38:08.339Z,3.65
2023-02-22T06:43:11.087Z,3.90
2023-02-22T06:48:13.779Z,3.80
2023-02-22T06:53:17.566Z,3.95
2023-02-22T06:58:20.023Z,3.70
2023-02-22T07:03:22.762Z,3.40
2023-02-22T07:08:26.595Z,4.10
2023-02-22T07:13:29.600Z,3.92
2023-02-22T07:18:32.098Z,4.03
2023-02-22T07:23:36.972Z,3.83
2023-02-22T07:28:39.435Z,5.15
2023-02-22T07:33:42.038Z,4.38
2023-02-22T07:38:46.413Z,3.90
2023-02-22T07:43:48.913Z,3.90
2023-02-22T07:48:51.385Z,3.83
2023-02-22T07:53:55.215Z,4.17
2023-02-22T07:58:57.723Z,4.73
2023-02-22T08:04:00.270Z,5.55
2023-02-22T08:09:04.158Z,4.68
2023-02-22T08:14:06.648Z,4.80
2023-02-22T08:19:09.128Z,6.60
2023-02-22T08:36:36.471Z,8.50
2023-02-22T08:41:38.958Z,6.88
2023-02-22T08:46:41.449Z,5.03
2023-02-22T08:51:45.258Z,4.50
2023-02-22T08:56:47.747Z,4.20
2023-02-22T09:01:50.266Z,3.85
2023-02-22T09:06:54.079Z,4.03
2023-02-22T09:11:56.571Z,4.20
2023-02-22T09:16:59.048Z,4.28
2023-02-22T09:22:03.061Z,3.63
2023-02-22T09:27:07.316Z,4.15
2023-02-22T09:32:09.916Z,4.50
2023-02-22T09:37:14.746Z,3.50
2023-02-22T09:42:25.854Z,3.90
2023-02-22T09:47:39.793Z,2.80
2023-02-22T09:52:53.898Z,2.50
2023-02-22T09:57:58.914Z,2.67
2023-02-22T10:03:24.235Z,2.65
2023-02-22T10:08:33.240Z,2.63
2023-02-22T10:13:49.483Z,2.63
2023-02-22T10:19:08.264Z,2.85
2023-02-22T10:24:23.490Z,3.13
2023-02-22T10:29:33.604Z,2.90
2023-02-22T10:34:42.272Z,3.17
2023-02-22T10:39:49.299Z,2.25
2023-02-22T10:44:51.898Z,2.50
2023-02-22T10:49:57.541Z,2.50
2023-02-22T10:55:14.566Z,3.03
2023-02-22T11:00:26.138Z,2.63
2023-02-22T11:05:32.531Z,2.83
2023-02-22T11:10:38.633Z,2.35
2023-02-22T11:15:41.135Z,3.00
2023-02-22T11:20:43.639Z,2.90
2023-02-22T11:25:49.050Z,2.93
2023-02-22T11:30:52.902Z,2.70
2023-02-22T11:35:59.282Z,2.70
2023-02-22T11:41:18.258Z,2.37
2023-02-22T11:46:23.480Z,3.20
2023-02-22T11:51:38.161Z,3.00
2023-02-22T11:56:46.830Z,2.80
2023-02-22T12:01:55.393Z,2.45
2023-02-22T12:07:15.374Z,2.35
2023-02-22T12:12:25.935Z,2.90
2023-02-22T12:17:43.699Z,2.63
2023-02-22T12:22:55.906Z,2.72
2023-02-22T12:28:09.994Z,2.65
2023-02-22T12:33:18.109Z,2.20
2023-02-22T12:38:25.179Z,3.25
2023-02-22T12:43:33.539Z,2.42
2023-02-22T12:48:45.611Z,2.70
2023-02-22T12:53:56.564Z,2.58
2023-02-22T12:59:05.407Z,2.38
2023-02-22T13:04:20.114Z,2.23
2023-02-22T13:09:42.996Z,2.10
2023-02-22T13:21:21.647Z,2.10
2023-02-22T13:26:30.939Z,2.30
2023-02-22T13:31:47.309Z,2.42
2023-02-22T13:37:09.718Z,2.13
2023-02-22T13:42:30.467Z,2.40
2023-02-22T13:47:50.676Z,2.65
2023-02-22T13:52:57.435Z,2.30
2023-02-22T13:58:04.069Z,2.40
2023-02-22T14:03:08.977Z,3.00
2023-02-22T14:08:41.998Z,2.63
2023-02-22T14:14:12.143Z,2.45
2023-02-22T14:19:17.770Z,2.17
2023-02-22T14:24:21.732Z,2.40
2023-02-22T14:29:25.569Z,2.67
2023-02-22T14:34:42.707Z,2.27
2023-02-22T14:39:51.274Z,2.50
2023-02-22T14:45:00.576Z,2.47
2023-02-22T14:50:09.310Z,2.50
2023-02-22T14:55:22.909Z,2.47
2023-02-22T15:00:31.504Z,2.17
2023-02-22T15:05:39.210Z,1.98
2023-02-22T15:10:45.706Z,2.40
2023-02-22T15:15:49.995Z,2.63
2023-02-22T15:20:57.513Z,2.13
2023-02-22T15:26:02.634Z,1.80
2023-02-22T15:31:25.670Z,1.90
2023-02-22T15:36:31.050Z,24.38
2023-02-22T15:41:36.017Z,3.80
2023-02-22T15:46:39.595Z,3.83
2023-02-22T15:51:46.363Z,1.90
2023-02-22T15:56:55.496Z,2.28
2023-02-22T16:01:59.577Z,2.87
2023-02-22T16:07:16.765Z,2.08
2023-02-22T16:12:28.335Z,3.55
2023-02-22T16:17:36.894Z,2.10
2023-02-22T16:22:40.716Z,5.15
2023-02-22T16:27:48.208Z,6.97
2023-02-22T16:32:50.730Z,8.00
2023-02-22T16:37:57.298Z,8.73
2023-02-22T16:43:03.052Z,8.48
2023-02-22T16:48:15.534Z,9.73
2023-02-22T16:53:20.596Z,9.23
2023-02-22T16:58:27.812Z,9.85
2023-02-22T17:03:30.364Z,9.10
2023-02-22T17:08:32.875Z,9.60
2023-02-22T17:13:36.760Z,26.40
2023-02-22T17:18:40.700Z,9.30
2023-02-22T17:23:45.788Z,9.10
2023-02-22T17:28:49.752Z,8.87
2023-02-22T17:33:52.320Z,12.82
2023-02-22T17:38:54.959Z,9.73
2023-02-22T17:43:58.895Z,9.63
2023-02-22T17:49:01.809Z,10.20
2023-02-22T17:54:04.703Z,11.55
2023-02-22T17:59:09.133Z,11.90
2023-02-22T18:04:11.721Z,13.13
2023-02-22T18:09:17.630Z,12.52
2023-02-22T18:14:21.514Z,22.77
2023-02-22T18:19:24.004Z,12.37
2023-02-22T18:24:26.630Z,11.25
2023-02-22T18:29:30.440Z,13.95
2023-02-22T18:34:33.521Z,11.33
2023-02-22T18:39:42.625Z,12.48
2023-02-22T18:44:46.434Z,10.70
2023-02-22T18:49:49.638Z,10.53
2023-02-22T18:54:52.153Z,10.95
2023-02-22T18:59:57.846Z,14.25
2023-02-22T19:05:00.404Z,13.97
2023-02-22T19:10:03.372Z,12.03
2023-02-22T19:15:07.887Z,11.40
2023-02-22T19:20:11.043Z,8.48
2023-02-22T19:25:13.549Z,7.60
2023-02-22T19:30:17.668Z,7.45
2023-02-22T19:35:26.967Z,6.50
2023-02-22T19:40:30.136Z,6.60
2023-02-22T19:45:33.954Z,7.07
2023-02-22T19:50:44.705Z,6.53
2023-02-22T19:55:47.169Z,6.00
2023-02-22T20:00:51.058Z,6.40
2023-02-22T20:05:57.737Z,5.65
2023-02-22T20:11:00.288Z,5.70
2023-02-22T20:16:04.401Z,6.07
2023-02-22T20:21:09.455Z,5.80
2023-02-22T20:26:16.767Z,6.18
2023-02-22T20:31:22.077Z,6.10
2023-02-22T20:36:25.146Z,6.35
2023-02-22T20:41:29.692Z,5.43
2023-02-22T20:46:36.037Z,5.50
2023-02-22T20:51:40.339Z,7.03
2023-02-22T20:56:45.457Z,5.60
2023-02-22T21:01:50.106Z,5.60
2023-02-22T21:06:52.970Z,4.70
2023-02-22T21:11:56.159Z,5.75
2023-02-22T21:17:03.093Z,5.57
2023-02-22T21:22:08.321Z,5.70
2023-02-22T21:27:12.132Z,5.05
2023-02-22T21:32:16.459Z,5.47
2023-02-22T21:37:19.311Z,5.80
2023-02-22T21:42:21.794Z,4.87
2023-02-22T21:47:25.764Z,5.70
2023-02-22T21:52:28.235Z,4.93
2023-02-22T21:57:30.987Z,4.73
2023-02-22T22:02:38.064Z,5.05
2023-02-22T22:07:41.433Z,5.43
2023-02-22T22:12:46.072Z,5.13
2023-02-22T22:17:50.075Z,5.10
2023-02-22T22:22:52.751Z,5.80
2023-02-22T22:27:56.084Z,5.43
2023-02-22T22:32:59.886Z,5.77
2023-02-22T22:38:02.821Z,5.13
2023-02-22T22:43:05.970Z,6.10
2023-02-22T22:48:14.688Z,5.67
2023-02-22T22:53:17.853Z,5.32
2023-02-22T22:58:20.316Z,5.20
2023-02-22T23:03:24.829Z,5.00
2023-02-22T23:08:29.226Z,5.50
2023-02-22T23:13:31.744Z,5.30
2023-02-22T23:18:36.258Z,5.17
2023-02-22T23:23:39.233Z,5.37
2023-02-22T23:28:42.734Z,5.80
2023-02-22T23:33:49.031Z,5.43
2023-02-22T23:38:51.504Z,5.90
2023-02-22T23:43:54.004Z,5.32
2023-02-22T23:49:01.610Z,5.43
2023-02-22T23:54:05.985Z,6.37
2023-02-22T23:59:11.191Z,5.95
